Time;durP1;ratioP1;P1;durP2;ratioP2;P2;SDS_P1;SDS_P2;PMS_P1;PMS_P2;Temp;Humidity;BMP_temperature;BMP_pressure;BME280_temperature;BME280_humidity;BME280_pressure;Samples;Min_cycle;Max_cycle;Signal;HPM_P1;HPM_P2
2023/02/13 00:02:00;;;;;;;5.93;5.37;;;;;;;8.29;95.41;102815.81;5058041;28;20205;-81
2023/02/13 00:04:26;;;;;;;6.60;6.00;;;;;;;8.31;95.78;102827.16;5057660;28;20229;-82
2023/02/13 00:06:53;;;;;;;8.23;5.23;;;;;;;8.29;95.16;102828.81;5057573;28;20821;-81
2023/02/13 00:09:19;;;;;;;5.93;5.30;;;;;;;8.29;95.58;102828.81;5057888;28;20213;-82
2023/02/13 00:11:45;;;;;;;6.53;5.43;;;;;;;8.32;95.37;102830.63;5057328;28;20708;-82
2023/02/13 00:14:13;;;;;;;6.23;5.63;;;;;;;8.34;95.04;102835.06;5057528;28;20763;-82
2023/02/13 00:16:39;;;;;;;5.53;5.03;;;;;;;8.31;94.81;102840.16;5057664;28;20202;-81
2023/02/13 00:19:06;;;;;;;6.10;5.47;;;;;;;8.32;94.72;102848.84;5057780;28;20201;-80
2023/02/13 00:21:32;;;;;;;5.63;4.87;;;;;;;8.32;94.76;102847.16;5056630;28;20208;-80
2023/02/13 00:23:59;;;;;;;5.67;5.07;;;;;;;8.28;94.83;102847.88;5057489;28;20279;-82
2023/02/13 00:26:25;;;;;;;5.77;5.27;;;;;;;8.27;95.18;102840.91;5056927;28;20237;-81
2023/02/13 00:28:51;;;;;;;8.13;5.10;;;;;;;8.22;95.19;102832.06;5057496;28;20206;-81
2023/02/13 00:31:21;;;;;;;5.83;5.20;;;;;;;8.19;95.52;102834.59;5057067;28;20271;-82
2023/02/13 00:33:48;;;;;;;5.63;5.10;;;;;;;8.19;95.72;102823.31;5056806;28;20220;-81
2023/02/13 00:36:16;;;;;;;6.13;5.17;;;;;;;8.18;95.43;102829.34;5057089;28;20220;-82
2023/02/13 00:38:43;;;;;;;6.73;4.93;;;;;;;8.16;95.94;102818.88;5057242;28;20270;-81
2023/02/13 00:41:10;;;;;;;5.43;4.93;;;;;;;8.16;96.29;102814.56;5057273;28;20209;-81
2023/02/13 00:43:37;;;;;;;5.07;4.57;;;;;;;8.19;95.83;102818.13;5057331;28;20200;-80
2023/02/13 00:46:04;;;;;;;5.60;5.00;;;;;;;8.21;95.71;102817.31;5056439;28;20587;-77
2023/02/13 00:48:33;;;;;;;7.10;4.80;;;;;;;8.20;95.57;102823.34;5056117;28;20206;-81
2023/02/13 00:51:00;;;;;;;4.93;4.43;;;;;;;8.22;95.47;102823.41;5056436;28;20210;-80
2023/02/13 00:53:27;;;;;;;5.40;4.77;;;;;;;8.21;95.45;102822.53;5056442;28;20210;-82
2023/02/13 00:55:53;;;;;;;6.17;4.73;;;;;;;8.16;95.51;102824.97;5056400;28;20225;-79
2023/02/13 00:58:20;;;;;;;6.47;4.97;;;;;;;8.12;96.00;102819.63;5056432;28;20290;-78
2023/02/13 01:00:47;;;;;;;4.97;4.47;;;;;;;8.09;96.22;102811.75;5057192;28;20209;-81
2023/02/13 01:03:13;;;;;;;4.93;4.50;;;;;;;8.09;95.87;102807.44;5056153;28;20271;-81
2023/02/13 01:05:42;;;;;;;4.90;4.50;;;;;;;8.08;96.25;102796.97;5056525;28;20233;-80
2023/02/13 01:08:08;;;;;;;5.20;4.70;;;;;;;8.03;96.57;102795.97;5057061;28;20256;-80
2023/02/13 01:10:36;;;;;;;6.27;4.70;;;;;;;8.05;96.92;102789.09;5056557;28;20274;-81
2023/02/13 01:13:03;;;;;;;5.67;4.63;;;;;;;8.09;96.63;102785.75;5055837;28;20205;-81
2023/02/13 01:15:29;;;;;;;5.33;4.50;;;;;;;8.11;96.20;102782.34;5056260;28;20226;-78
2023/02/13 01:17:56;;;;;;;5.37;4.87;;;;;;;8.07;96.67;102784.81;5056557;28;20206;-80
2023/02/13 01:20:23;;;;;;;5.43;4.93;;;;;;;8.06;96.44;102785.66;5056225;28;20212;-78
2023/02/13 01:22:51;;;;;;;5.20;4.63;;;;;;;8.12;96.52;102775.41;5055825;28;20522;-81
2023/02/13 01:25:18;;;;;;;5.27;4.77;;;;;;;8.16;95.79;102782.47;5056090;28;20236;-82
2023/02/13 01:27:44;;;;;;;5.63;4.80;;;;;;;8.12;95.78;102786.69;5056083;28;20635;-82
2023/02/13 01:30:13;;;;;;;5.57;4.93;;;;;;;8.11;95.62;102787.56;5056867;28;20271;-81
2023/02/13 01:32:40;;;;;;;6.03;4.53;;;;;;;8.12;95.82;102788.44;5055665;28;20205;-82
2023/02/13 01:35:08;;;;;;;5.30;4.80;;;;;;;8.11;96.00;102782.34;5056248;28;20256;-81
2023/02/13 01:37:34;;;;;;;5.50;4.73;;;;;;;8.14;95.83;102781.53;5056034;28;20259;-81
2023/02/13 01:40:02;;;;;;;5.53;4.83;;;;;;;8.13;95.59;102783.28;5055620;28;20202;-80
2023/02/13 01:42:31;;;;;;;5.77;5.17;;;;;;;8.05;95.68;102776.97;5055179;28;20740;-81
2023/02/13 01:44:59;;;;;;;5.87;4.80;;;;;;;8.09;95.72;102780.56;5055090;28;20236;-80
2023/02/13 01:47:29;;;;;;;6.50;5.10;;;;;;;8.07;95.98;102774.41;5055618;28;20628;-82
2023/02/13 01:50:05;;;;;;;8.80;4.77;;;;;;;8.08;95.96;102770.97;5055200;28;20205;-81
2023/02/13 01:52:31;;;;;;;6.50;5.30;;;;;;;8.09;95.83;102775.34;5055364;28;20270;-79
2023/02/13 01:54:58;;;;;;;5.40;4.90;;;;;;;8.08;95.96;102777.03;5055601;28;20260;-81
2023/02/13 01:57:31;;;;;;;6.70;5.50;;;;;;;8.12;95.68;102773.69;5055017;28;20213;-81
2023/02/13 02:00:02;;;;;;;5.67;5.10;;;;;;;8.15;95.61;102767.72;5055797;28;20209;-80
2023/02/13 02:02:31;;;;;;;6.17;4.93;;;;;;;8.08;95.34;102774.44;5055551;28;20742;-79
2023/02/13 02:04:57;;;;;;;6.50;4.63;;;;;;;8.11;95.22;102777.16;5056620;28;20439;-80
2023/02/13 02:07:26;;;;;;;5.57;4.97;;;;;;;8.11;95.65;102771.94;5055015;28;20205;-80
2023/02/13 02:09:56;;;;;;;6.00;5.40;;;;;;;8.13;95.86;102777.19;5055256;28;20201;-79
2023/02/13 02:12:29;;;;;;;5.87;5.23;;;;;;;8.14;95.43;102776.34;5055154;28;20212;-79
2023/02/13 02:14:58;;;;;;;5.40;4.90;;;;;;;8.16;95.30;102782.47;5054798;28;20558;-82
2023/02/13 02:17:26;;;;;;;5.43;4.80;;;;;;;8.13;95.44;102778.06;5055097;28;20205;-80
2023/02/13 02:20:03;;;;;;;6.57;5.97;;;;;;;8.15;94.90;102789.41;5055140;28;20202;-80
2023/02/13 02:22:59;;;;;;;6.53;5.87;;;;;;;8.08;94.80;102787.44;5055341;28;20217;-82
2023/02/13 02:25:47;;;;;;;6.37;5.77;;;;;;;8.12;94.69;102793.63;5055979;28;20711;-81
2023/02/13 02:28:29;;;;;;;6.30;5.40;;;;;;;8.13;94.93;102791.06;5056545;28;20205;-80
2023/02/13 02:31:41;;;;;;;8.23;6.73;;;;;;;8.04;94.85;102787.31;5055587;28;20213;-79
2023/02/13 02:34:18;;;;;;;7.83;6.80;;;;;;;7.84;94.82;102789.34;5056968;28;20279;-80
2023/02/13 02:37:04;;;;;;;7.50;6.73;;;;;;;7.56;95.95;102760.75;5058839;28;20201;-81
2023/02/13 02:39:40;;;;;;;6.70;6.10;;;;;;;7.55;97.18;102734.72;5058898;28;20211;-80
2023/02/13 02:42:22;;;;;;;8.47;6.33;;;;;;;7.56;97.69;102710.50;5058749;28;20212;-82
2023/02/13 02:44:56;;;;;;;9.30;6.70;;;;;;;7.64;98.02;102695.16;5051215;28;20499;-80
2023/02/13 02:50:32;;;;;;;7.63;6.87;;;;;;;7.69;97.76;102686.66;5023224;28;20212;-81
2023/02/13 02:53:08;;;;;;;7.23;6.53;;;;;;;7.73;97.98;102679.81;5058654;28;20238;-82
2023/02/13 02:55:42;;;;;;;8.80;6.40;;;;;;;7.76;97.89;102674.69;5058215;28;20271;-82
2023/02/13 03:06:36;;;;;;;7.60;6.57;;;;;;;7.92;97.15;102687.28;5058168;28;20612;-80
2023/02/13 03:14:40;;;;;;;8.50;6.33;;;;;;;7.94;96.88;102713.34;5057535;28;20244;-80
2023/02/13 03:23:07;;;;;;;6.37;5.67;;;;;;;7.90;96.34;102722.78;5058263;28;20274;-81
2023/02/13 03:25:41;;;;;;;6.40;5.53;;;;;;;7.93;96.05;102722.00;5058400;28;20225;-82
2023/02/13 03:31:14;;;;;;;5.57;4.93;;;;;;;7.91;95.92;102727.16;5058555;28;20582;-81
2023/02/13 03:33:58;;;;;;;6.40;5.10;;;;;;;7.92;95.78;102726.31;5057433;28;20675;-80
2023/02/13 03:39:23;;;;;;;5.53;4.30;;;;;;;7.89;95.71;102739.22;5058101;28;20279;-81
2023/02/13 03:41:55;;;;;;;5.43;4.73;;;;;;;7.93;95.98;102732.41;5057449;28;20245;-82
2023/02/13 03:44:28;;;;;;;6.17;5.20;;;;;;;7.92;95.73;102746.22;5056989;28;20711;-81
2023/02/13 03:46:58;;;;;;;7.13;5.50;;;;;;;7.84;95.04;102756.41;5057494;28;20230;-81
2023/02/13 03:52:19;;;;;;;6.13;5.07;;;;;;;7.91;94.87;102770.50;5057856;28;20590;-82
2023/02/13 04:00:22;;;;;;;5.70;5.07;;;;;;;7.92;95.04;102773.09;5057764;28;20682;-80
2023/02/13 04:02:56;;;;;;;5.73;4.90;;;;;;;7.90;95.31;102766.97;5057970;28;20210;-81
2023/02/13 04:05:26;;;;;;;5.00;4.53;;;;;;;7.93;95.00;102763.63;5057978;28;20294;-81
2023/02/13 04:07:54;;;;;;;5.17;4.37;;;;;;;7.93;95.03;102763.63;5056280;28;20252;-82
2023/02/13 04:10:24;;;;;;;5.57;5.00;;;;;;;7.82;94.56;102773.69;5056708;28;20214;-80
2023/02/13 04:12:58;;;;;;;6.07;4.77;;;;;;;7.81;94.64;102774.53;5055962;28;20209;-80
2023/02/13 04:15:30;;;;;;;5.87;5.27;;;;;;;7.83;94.52;102767.66;5055662;28;20653;-81
2023/02/13 04:18:06;;;;;;;5.50;5.00;;;;;;;7.85;94.70;102765.97;5056439;28;20769;-80
2023/02/13 04:20:32;;;;;;;5.47;4.90;;;;;;;7.84;93.99;102776.34;5056695;28;20208;-80
2023/02/13 04:23:05;;;;;;;6.70;4.93;;;;;;;7.91;94.22;102779.16;5056754;28;20274;-81
2023/02/13 04:25:32;;;;;;;5.73;5.13;;;;;;;7.89;93.99;102779.97;5056447;28;20229;-80
2023/02/13 04:27:58;;;;;;;4.77;4.37;;;;;;;7.89;94.15;102779.97;5056551;28;20668;-80
2023/02/13 04:30:24;;;;;;;5.30;4.80;;;;;;;7.84;93.49;102786.72;5056894;28;20634;-79
2023/02/13 04:32:51;;;;;;;4.70;4.27;;;;;;;7.78;93.31;102795.22;5056340;28;20212;-81
2023/02/13 04:35:18;;;;;;;5.20;4.70;;;;;;;7.65;93.84;102795.66;5056308;28;20656;-81
2023/02/13 04:37:44;;;;;;;7.07;4.53;;;;;;;7.72;94.31;102780.31;5056755;28;20206;-81
2023/02/13 04:40:12;;;;;;;5.20;4.70;;;;;;;7.77;93.87;102775.28;5056570;28;20209;-81
2023/02/13 04:42:39;;;;;;;4.33;3.93;;;;;;;7.76;93.95;102781.28;5056279;28;20212;-81
2023/02/13 04:45:05;;;;;;;5.03;4.53;;;;;;;7.81;94.13;102771.94;5050181;28;20705;-80
2023/02/13 04:47:32;;;;;;;4.93;4.20;;;;;;;7.79;93.76;102771.00;5054038;28;20278;-80
2023/02/13 04:49:58;;;;;;;4.27;3.83;;;;;;;7.60;93.66;102769.53;5056581;28;20209;-81
2023/02/13 04:52:24;;;;;;;4.47;4.07;;;;;;;7.72;94.27;102761.25;5055991;28;20210;-79
2023/02/13 04:54:51;;;;;;;4.50;4.10;;;;;;;7.78;94.11;102757.94;5056055;28;20233;-80
2023/02/13 04:57:18;;;;;;;5.27;4.20;;;;;;;7.75;93.59;102757.03;5056702;28;20232;-81
2023/02/13 04:59:45;;;;;;;4.43;4.03;;;;;;;7.74;93.78;102767.38;5056155;28;20228;-81
2023/02/13 05:02:11;;;;;;;4.70;3.83;;;;;;;7.38;93.51;102765.41;5056118;28;20257;-83
2023/02/13 05:04:38;;;;;;;4.10;3.70;;;;;;;7.35;94.35;102752.28;5056120;28;20228;-81
2023/02/13 05:07:04;;;;;;;4.10;3.70;;;;;;;7.43;94.50;102737.81;5055909;28;20297;-79
2023/02/13 05:09:30;;;;;;;3.70;3.27;;;;;;;7.50;94.32;102741.50;5056723;28;20205;-80
2023/02/13 05:11:57;;;;;;;3.10;2.80;;;;;;;7.57;94.49;102746.03;5056264;28;20668;-82
2023/02/13 05:14:24;;;;;;;3.67;3.37;;;;;;;7.59;93.57;102760.00;5056214;28;20672;-81
2023/02/13 05:16:51;;;;;;;3.90;3.27;;;;;;;7.34;92.91;102776.53;5048582;28;20266;-80
2023/02/13 05:19:17;;;;;;;3.07;2.80;;;;;;;7.38;92.90;102783.59;5056352;28;20205;-81
2023/02/13 05:24:28;;;;;;;4.37;3.00;;;;;;;7.26;93.12;102789.25;5055991;28;20224;-79
2023/02/13 05:26:54;;;;;;;4.10;3.03;;;;;;;7.41;93.27;102790.59;5055913;28;20232;-79
2023/02/13 05:29:22;;;;;;;3.30;2.93;;;;;;;7.49;93.81;102786.50;5056529;28;20231;-80
2023/02/13 05:31:52;;;;;;;3.73;2.70;;;;;;;7.61;93.51;102789.53;5055698;28;20219;-79
2023/02/13 05:34:18;;;;;;;2.60;2.20;;;;;;;7.65;92.96;102800.88;5056096;28;20229;-82
2023/02/13 05:36:45;;;;;;;2.97;2.67;;;;;;;7.66;93.08;102800.06;5056865;28;20205;-81
2023/02/13 05:39:12;;;;;;;3.10;2.73;;;;;;;7.50;91.95;102809.09;5056799;28;20212;-81
2023/02/13 05:41:38;;;;;;;3.13;2.00;;;;;;;7.58;92.47;102818.00;5056347;28;20232;-81
2023/02/13 05:44:05;;;;;;;2.20;2.00;;;;;;;7.61;92.53;102819.81;5056777;28;20275;-81
2023/02/13 05:46:31;;;;;;;2.30;1.90;;;;;;;7.50;91.09;102833.34;5056257;28;20236;-82
2023/02/13 05:48:59;;;;;;;2.00;1.83;;;;;;;7.36;91.15;102850.22;5054523;28;20213;-80
2023/02/13 05:51:26;;;;;;;2.00;1.80;;;;;;;7.47;91.33;102833.25;5042780;28;20267;-80
2023/02/13 05:53:53;;;;;;;1.60;1.50;;;;;;;7.55;91.29;102839.59;5041068;28;20216;-82
2023/02/13 05:56:20;;;;;;;1.83;1.70;;;;;;;7.60;91.17;102855.31;5042345;28;20726;-81
2023/02/13 05:58:46;;;;;;;1.63;1.47;;;;;;;7.56;90.41;102864.72;5045385;28;20201;-80
2023/02/13 06:01:13;;;;;;;1.57;1.47;;;;;;;7.62;90.89;102871.84;5046144;28;20205;-80
2023/02/13 06:03:40;;;;;;;1.87;1.67;;;;;;;7.66;91.00;102875.44;5044205;28;20267;-78
2023/02/13 06:06:07;;;;;;;1.83;1.73;;;;;;;7.71;90.32;102868.66;5043737;28;20673;-81
2023/02/13 06:08:34;;;;;;;2.03;1.47;;;;;;;7.71;90.91;102874.75;5045160;28;20209;-81
2023/02/13 06:11:00;;;;;;;1.83;1.60;;;;;;;7.60;90.13;102888.22;5047846;28;20198;-82
2023/02/13 06:13:27;;;;;;;1.50;1.40;;;;;;;7.61;90.40;102897.78;5050102;28;20205;-80
2023/02/13 06:15:53;;;;;;;1.97;1.43;;;;;;;7.69;90.05;102896.31;5052294;28;20223;-79
2023/02/13 06:18:20;;;;;;;1.40;1.30;;;;;;;7.72;90.23;102893.81;5048331;28;20443;-79
2023/02/13 06:20:46;;;;;;;1.07;1.00;;;;;;;7.59;89.58;102902.03;5049452;28;20248;-81
2023/02/13 06:23:14;;;;;;;1.90;1.43;;;;;;;7.68;89.84;102904.97;5049371;28;20761;-81
2023/02/13 06:25:40;;;;;;;1.40;1.30;;;;;;;7.64;89.55;102908.28;5047862;28;20244;-81
2023/02/13 06:28:07;;;;;;;1.50;1.40;;;;;;;7.67;90.08;102904.09;5048354;28;20707;-82
2023/02/13 06:30:34;;;;;;;1.40;1.07;;;;;;;7.65;89.43;102904.84;5049990;28;20194;-80
2023/02/13 06:33:00;;;;;;;1.40;1.27;;;;;;;7.69;89.53;102912.81;5048382;28;20198;-82
2023/02/13 06:35:27;;;;;;;1.30;1.20;;;;;;;7.52;89.01;102932.16;5049074;28;20246;-80
2023/02/13 06:37:54;;;;;;;1.53;1.43;;;;;;;7.63;89.54;102932.50;5049158;28;20549;-82
2023/02/13 06:40:21;;;;;;;1.60;1.43;;;;;;;7.62;88.97;102925.56;5046471;28;20200;-83
2023/02/13 06:42:48;;;;;;;2.37;1.43;;;;;;;7.70;89.51;102919.75;5046916;28;20204;-82
2023/02/13 06:45:14;;;;;;;1.50;1.40;;;;;;;7.72;89.32;102915.50;5046225;28;20237;-82
2023/02/13 06:47:42;;;;;;;2.07;1.33;;;;;;;7.75;89.54;102918.22;5044718;28;20247;-83
2023/02/13 06:50:09;;;;;;;1.50;1.27;;;;;;;7.72;89.43;102919.81;5047339;28;20248;-82
2023/02/13 06:52:35;;;;;;;2.07;1.50;;;;;;;7.70;89.43;102926.69;5047859;28;20204;-81
2023/02/13 06:55:02;;;;;;;1.70;1.50;;;;;;;7.58;89.54;102916.75;5046278;28;20222;-80
2023/02/13 06:57:31;;;;;;;1.43;1.33;;;;;;;7.63;89.86;102915.22;5046610;28;20566;-81
2023/02/13 06:59:58;;;;;;;1.63;1.53;;;;;;;7.66;89.56;102914.44;5047700;28;20343;-82
2023/02/13 07:02:24;;;;;;;1.60;1.50;;;;;;;7.69;89.85;102917.09;5043248;28;20255;-80
2023/02/13 07:04:51;;;;;;;1.60;1.30;;;;;;;7.69;89.97;102914.50;5046279;28;20267;-82
2023/02/13 07:07:17;;;;;;;1.97;1.23;;;;;;;7.70;90.19;102911.97;5048106;28;20220;-81
2023/02/13 07:09:43;;;;;;;1.47;1.27;;;;;;;7.72;90.46;102901.63;5047724;28;20239;-82
2023/02/13 07:12:10;;;;;;;1.67;1.40;;;;;;;7.78;90.69;102887.94;5046471;28;20202;-81
2023/02/13 07:14:37;;;;;;;1.40;1.30;;;;;;;7.79;90.02;102906.19;5043522;28;20229;-82
2023/02/13 07:17:04;;;;;;;1.77;1.40;;;;;;;7.72;89.68;102912.91;5043659;28;20202;-82
2023/02/13 07:19:30;;;;;;;2.07;1.97;;;;;;;7.71;90.31;102908.56;5045136;28;20207;-80
2023/02/13 07:21:56;;;;;;;1.67;1.50;;;;;;;7.69;89.70;102905.03;5047077;28;20224;-82
2023/02/13 07:24:23;;;;;;;1.77;1.67;;;;;;;7.59;90.05;102908.16;5037032;28;20230;-82
2023/02/13 07:26:49;;;;;;;3.37;1.50;;;;;;;7.67;90.85;102904.09;5037499;28;20230;-81
2023/02/13 07:29:15;;;;;;;1.80;1.60;;;;;;;7.73;90.83;102888.69;5037112;28;20206;-82
2023/02/13 07:31:43;;;;;;;2.53;1.80;;;;;;;7.83;91.26;102881.16;5036478;28;20614;-82
2023/02/13 07:34:10;;;;;;;2.40;2.20;;;;;;;7.89;91.09;102883.97;5036752;28;20226;-80
2023/02/13 07:36:36;;;;;;;2.40;1.90;;;;;;;7.94;90.61;102892.78;5037280;28;20202;-81
2023/02/13 07:39:03;;;;;;;1.93;1.80;;;;;;;7.92;90.13;102905.75;5037792;28;20232;-80
2023/02/13 07:41:29;;;;;;;2.50;2.20;;;;;;;7.88;90.55;102914.28;5036812;28;20237;-81
2023/02/13 07:43:55;;;;;;;2.20;2.00;;;;;;;7.81;90.90;102907.13;5043514;28;20680;-79
2023/02/13 07:46:22;;;;;;;3.20;2.80;;;;;;;7.84;91.22;102895.94;5056624;28;20689;-81
2023/02/13 07:48:51;;;;;;;2.50;2.30;;;;;;;7.86;90.88;102900.34;5057859;28;20204;-79
2023/02/13 07:51:17;;;;;;;3.83;2.93;;;;;;;7.84;91.07;102893.34;5057064;28;20209;-80
2023/02/13 07:53:44;;;;;;;2.80;2.60;;;;;;;7.89;91.58;102892.66;5056931;28;20212;-80
2023/02/13 07:56:10;;;;;;;3.23;2.93;;;;;;;7.91;91.42;102891.00;5058533;28;20263;-80
2023/02/13 07:58:38;;;;;;;2.93;2.37;;;;;;;7.91;91.57;102887.50;5058851;28;20205;-81
2023/02/13 08:01:09;;;;;;;3.23;2.93;;;;;;;7.71;92.28;102884.25;5058855;28;20272;-80
2023/02/13 08:03:36;;;;;;;4.07;3.70;;;;;;;7.78;92.92;102854.16;5057587;28;20859;-82
2023/02/13 08:06:04;;;;;;;3.93;3.40;;;;;;;7.63;94.39;102831.13;5058161;28;20225;-81
2023/02/13 08:08:31;;;;;;;3.73;3.43;;;;;;;7.72;94.44;102819.31;5056564;28;20231;-83
2023/02/13 08:13:46;;;;;;;4.00;3.60;;;;;;;7.82;94.54;102817.00;5056180;28;20285;-81
2023/02/13 08:16:13;;;;;;;4.60;3.40;;;;;;;7.86;93.85;102818.88;5050932;28;20259;-84
2023/02/13 08:18:39;;;;;;;4.10;3.63;;;;;;;7.89;94.32;102817.25;5036230;28;20202;-84
2023/02/13 08:21:07;;;;;;;3.70;3.30;;;;;;;7.93;93.78;102821.69;5036202;28;20206;-85
2023/02/13 08:23:33;;;;;;;4.73;3.57;;;;;;;7.70;93.81;102826.19;5037155;28;20259;-83
2023/02/13 08:26:01;;;;;;;3.57;3.27;;;;;;;7.80;94.68;102816.06;5035894;28;20574;-81
2023/02/13 08:28:28;;;;;;;3.83;3.37;;;;;;;7.89;94.01;102811.16;5035784;28;20613;-82
2023/02/13 08:30:55;;;;;;;4.37;3.97;;;;;;;7.89;94.32;102825.03;5036756;28;20259;-84
2023/02/13 08:33:21;;;;;;;5.57;4.43;;;;;;;7.91;94.09;102823.38;5034811;28;20210;-82
2023/02/13 08:35:47;;;;;;;4.80;4.40;;;;;;;7.94;94.37;102819.97;5036354;28;20226;-81
2023/02/13 08:38:15;;;;;;;4.27;3.90;;;;;;;7.92;93.93;102827.72;5036148;28;20217;-82
2023/02/13 08:40:41;;;;;;;6.70;4.60;;;;;;;7.92;93.44;102835.53;5036772;28;20206;-82
2023/02/13 08:43:08;;;;;;;5.57;5.07;;;;;;;7.97;93.13;102843.50;5036224;28;20445;-83
2023/02/13 08:45:35;;;;;;;5.53;5.03;;;;;;;7.86;92.94;102855.25;5055877;28;20371;-83
2023/02/13 08:48:02;;;;;;;5.40;5.00;;;;;;;7.94;92.38;102852.06;5055068;28;20945;-83
2023/02/13 08:50:29;;;;;;;6.07;5.40;;;;;;;8.02;92.51;102856.63;5055545;28;20240;-82
2023/02/13 08:52:55;;;;;;;4.90;4.50;;;;;;;8.07;92.69;102868.06;5055121;28;20227;-81
2023/02/13 08:55:23;;;;;;;5.47;5.07;;;;;;;7.99;91.48;102878.22;5056522;28;20228;-82
2023/02/13 08:57:49;;;;;;;4.90;4.40;;;;;;;8.03;91.78;102874.88;5056362;28;20220;-83
2023/02/13 09:00:16;;;;;;;4.23;3.93;;;;;;;7.67;92.02;102895.38;5055635;28;20205;-83
2023/02/13 09:02:42;;;;;;;4.40;4.00;;;;;;;7.73;92.60;102870.47;5055320;28;20205;-82
2023/02/13 09:05:09;;;;;;;4.93;4.53;;;;;;;7.88;92.69;102867.47;5055837;28;20282;-83
2023/02/13 09:07:35;;;;;;;4.97;4.57;;;;;;;7.93;92.31;102865.03;5055606;28;20221;-83
2023/02/13 09:10:01;;;;;;;4.70;4.30;;;;;;;7.81;90.92;102890.63;5055870;28;20201;-84
2023/02/13 09:12:29;;;;;;;4.30;3.90;;;;;;;7.75;91.00;102902.63;5055541;28;20201;-83
2023/02/13 09:14:55;;;;;;;4.03;3.73;;;;;;;7.78;91.07;102901.81;5055032;28;21066;-82
2023/02/13 09:17:22;;;;;;;4.60;4.20;;;;;;;7.47;92.23;102894.72;5054243;28;20674;-83
2023/02/13 09:19:48;;;;;;;5.17;4.60;;;;;;;7.40;92.73;102865.06;5056012;28;20564;-82
2023/02/13 09:22:16;;;;;;;4.33;4.03;;;;;;;7.32;93.33;102845.75;5054429;28;20745;-83
2023/02/13 09:24:42;;;;;;;4.37;4.00;;;;;;;7.50;94.37;102822.06;5055897;28;20275;-83
2023/02/13 09:27:08;;;;;;;4.07;3.67;;;;;;;7.48;93.11;102835.00;5055276;28;20229;-81
2023/02/13 09:29:36;;;;;;;3.80;3.50;;;;;;;7.65;92.96;102830.38;5054775;28;20231;-82
2023/02/13 09:32:04;;;;;;;3.80;3.50;;;;;;;7.63;91.99;102849.31;5055210;28;20217;-82
2023/02/13 09:34:30;;;;;;;3.77;3.47;;;;;;;7.64;92.04;102867.56;5055430;28;20731;-83
2023/02/13 09:36:57;;;;;;;2.80;2.60;;;;;;;7.45;91.08;102889.50;5055172;28;20279;-80
2023/02/13 09:39:23;;;;;;;3.63;3.33;;;;;;;7.43;92.24;102872.94;5054935;28;20213;-83
2023/02/13 09:41:53;;;;;;;3.50;3.20;;;;;;;7.72;92.62;102854.84;5054267;28;20205;-84
2023/02/13 09:44:33;;;;;;;2.70;2.50;;;;;;;7.35;92.12;102872.72;5057232;28;20233;-82
2023/02/13 09:47:04;;;;;;;2.50;2.30;;;;;;;7.66;92.01;102859.84;5058937;28;20208;-82
2023/02/13 09:49:33;;;;;;;2.90;2.60;;;;;;;7.89;92.77;102864.06;5039265;28;20212;-83
2023/02/13 09:52:00;;;;;;;2.50;2.30;;;;;;;8.07;91.62;102870.66;5039438;28;20217;-81
2023/02/13 09:54:30;;;;;;;2.50;2.30;;;;;;;8.22;91.14;102875.44;5059525;28;20225;-80
2023/02/13 09:57:00;;;;;;;1.93;1.80;;;;;;;8.16;89.60;102923.81;5059915;28;20214;-83
2023/02/13 09:59:39;;;;;;;2.27;2.07;;;;;;;7.94;89.54;102955.22;5058667;28;20252;-82
2023/02/13 10:02:24;;;;;;;1.97;1.87;;;;;;;7.59;89.26;102967.94;5058922;28;20209;-83
2023/02/13 10:05:00;;;;;;;2.23;2.13;;;;;;;7.80;90.60;102933.94;5059623;28;20293;-83
2023/02/13 10:07:37;;;;;;;2.30;2.00;;;;;;;7.87;89.34;102937.63;5059297;28;20231;-81
2023/02/13 10:10:17;;;;;;;2.65;2.45;;;;;;;8.02;88.94;102961.53;5057603;28;20431;-82
2023/02/13 10:13:06;;;;;;;2.77;2.50;;;;;;;8.27;88.09;102970.16;5059275;28;20201;-82
2023/02/13 10:15:39;;;;;;;2.33;2.17;;;;;;;8.31;87.50;103005.84;5044602;28;20271;-82
2023/02/13 10:18:14;;;;;;;1.90;1.80;;;;;;;8.47;87.26;103017.66;5059533;28;20213;-82
2023/02/13 10:20:45;;;;;;;1.97;1.87;;;;;;;8.20;85.33;103056.63;5058553;28;20258;-83
2023/02/13 10:23:24;;;;;;;1.90;1.80;;;;;;;7.94;86.04;103069.63;5058179;28;20251;-81
2023/02/13 10:25:57;;;;;;;1.87;1.70;;;;;;;8.09;86.71;103053.69;5058908;28;20232;-81
2023/02/13 10:28:30;;;;;;;2.70;2.10;;;;;;;8.14;86.41;103052.09;5059686;28;20229;-82
2023/02/13 10:31:02;;;;;;;1.83;1.73;;;;;;;8.38;86.90;103038.13;5057158;28;20258;-80
2023/02/13 10:33:34;;;;;;;2.40;2.13;;;;;;;8.52;86.72;103037.78;5056734;28;20208;-80
2023/02/13 10:36:04;;;;;;;2.70;2.50;;;;;;;8.71;86.00;103051.38;5056130;28;20601;-81
2023/02/13 10:38:32;;;;;;;2.30;2.10;;;;;;;8.60;84.52;103076.16;5058240;28;20210;-82
2023/02/13 10:41:23;;;;;;;2.83;2.30;;;;;;;7.93;86.00;103107.78;5056922;28;20209;-80
2023/02/13 10:44:05;;;;;;;2.53;2.10;;;;;;;7.86;86.30;103074.56;5055762;28;20209;-81
2023/02/13 10:46:42;;;;;;;2.23;2.03;;;;;;;8.15;86.88;103046.09;5056283;28;20205;-79
2023/02/13 10:49:26;;;;;;;2.87;2.33;;;;;;;8.19;86.27;103041.88;5056135;28;20252;-80
2023/02/13 10:52:01;;;;;;;2.30;2.10;;;;;;;8.02;87.57;103015.28;5058102;28;20201;-81
2023/02/13 10:57:04;;;;;;;2.47;2.27;;;;;;;7.98;88.06;102998.69;5077265;22;20257;-79
2023/02/13 10:59:46;;;;;;;2.47;2.27;;;;;;;8.09;87.64;102980.84;5055874;28;20259;-80
2023/02/13 11:02:22;;;;;;;2.97;1.97;;;;;;;8.22;87.30;102988.19;5056880;28;20212;-79
2023/02/13 11:04:52;;;;;;;2.40;2.20;;;;;;;8.12;87.45;102993.94;5056859;28;20201;-80
2023/02/13 11:07:21;;;;;;;2.00;1.90;;;;;;;8.23;87.76;102987.38;5056024;28;20213;-79
2023/02/13 11:09:50;;;;;;;2.67;1.70;;;;;;;8.01;87.25;103006.59;5056737;28;20255;-79
2023/02/13 11:12:25;;;;;;;1.60;1.50;;;;;;;8.01;87.95;102975.38;5056431;28;20258;-79
2023/02/13 11:14:55;;;;;;;2.67;2.00;;;;;;;7.89;89.53;102959.41;5056433;28;20231;-79
2023/02/13 11:17:23;;;;;;;1.70;1.60;;;;;;;8.01;88.89;102949.38;5056113;28;20290;-80
2023/02/13 11:19:53;;;;;;;2.17;1.60;;;;;;;7.92;88.30;102947.34;5056139;28;20209;-78
2023/02/13 11:22:29;;;;;;;2.23;1.80;;;;;;;7.91;88.68;102943.00;5056236;28;20201;-79
2023/02/13 11:24:59;;;;;;;2.03;1.93;;;;;;;7.79;87.29;102947.81;5055681;28;20301;-79
2023/02/13 11:27:30;;;;;;;2.03;1.67;;;;;;;7.75;86.76;102987.53;5056397;28;20209;-80
2023/02/13 11:29:58;;;;;;;1.73;1.50;;;;;;;8.00;86.64;102990.94;5056658;28;20672;-78
2023/02/13 11:32:26;;;;;;;1.30;1.20;;;;;;;8.26;86.87;102984.84;5054796;28;20212;-79
2023/02/13 11:34:55;;;;;;;1.63;1.40;;;;;;;8.31;85.18;103016.25;5054284;28;20229;-79
2023/02/13 11:37:24;;;;;;;1.27;0.97;;;;;;;8.44;84.92;103030.53;5054614;28;20209;-79
2023/02/13 11:39:53;;;;;;;1.30;1.17;;;;;;;8.74;85.34;103035.81;5054213;28;20259;-81
2023/02/13 11:42:25;;;;;;;1.60;1.50;;;;;;;8.63;82.51;103066.75;5054096;28;20209;-79
2023/02/13 11:44:54;;;;;;;1.40;1.30;;;;;;;8.18;82.10;103134.63;5053729;28;20224;-80
2023/02/13 11:47:32;;;;;;;2.00;1.80;;;;;;;8.05;83.50;103116.84;5054134;28;20204;-81
2023/02/13 11:50:00;;;;;;;2.17;1.97;;;;;;;7.85;85.43;103075.41;5054198;28;20640;-80
2023/02/13 11:52:29;;;;;;;2.27;2.07;;;;;;;7.62;85.42;103048.59;5054234;28;20235;-80
2023/02/13 11:54:58;;;;;;;1.90;1.80;;;;;;;7.84;85.38;103024.22;5053806;28;20730;-79
2023/02/13 11:57:29;;;;;;;1.83;1.73;;;;;;;7.96;85.02;103034.16;5054032;28;20257;-82
2023/02/13 11:59:57;;;;;;;2.10;1.90;;;;;;;7.95;84.04;103037.63;5055453;28;20205;-81
2023/02/13 12:02:26;;;;;;;2.10;1.90;;;;;;;8.00;83.38;103056.84;5055925;28;20209;-80
2023/02/13 12:04:54;;;;;;;2.00;1.80;;;;;;;7.69;83.69;103078.28;5056829;28;20224;-81
2023/02/13 12:07:25;;;;;;;2.07;1.70;;;;;;;8.01;83.89;103061.22;5056882;28;20209;-81
2023/02/13 12:10:00;;;;;;;2.10;1.90;;;;;;;8.34;84.45;103042.34;5056423;28;20226;-81
2023/02/13 12:12:33;;;;;;;1.50;1.40;;;;;;;8.40;82.24;103070.28;5056378;28;20209;-81
2023/02/13 12:15:03;;;;;;;1.80;1.70;;;;;;;8.50;82.06;103098.41;5055732;28;20229;-80
2023/02/13 12:17:31;;;;;;;1.50;1.40;;;;;;;8.63;81.84;103103.19;5057233;28;20262;-79
2023/02/13 12:19:57;;;;;;;2.37;1.37;;;;;;;8.54;80.55;103132.44;5056792;28;20213;-80
2023/02/13 12:22:39;;;;;;;1.50;1.40;;;;;;;8.47;80.20;103156.47;5056242;28;20258;-79
2023/02/13 12:25:27;;;;;;;1.53;1.43;;;;;;;8.72;81.58;103132.16;4356046;28;10000695;-81
2023/02/13 12:28:06;;;;;;;1.40;1.30;;;;;;;8.66;79.80;103155.38;5054059;28;20351;-82
2023/02/13 12:31:01;;;;;;;1.60;1.50;;;;;;;8.51;79.49;103179.16;5052927;28;20209;-82